Aurora, CO (80042)

11:53 PM MDT on July 06, 2015 (GMT -0600)
Arapahoe2 | | Change Station
CLOSE
Current Station
Personal Weather Station
Location: Aurora, CO
Elevation: 5531 ft
Nearby Weather Stations

Elev 5531 ft 39.73 °N, 104.77 °W | Updated 5 seconds ago

Overcast
Overcast
59.2 °F
Feels Like 59.2 °F
N
6.0
Wind Variable Wind from East
Gusts 10.0 mph

Today
High -- | Low -- °F
--% Chance of Precip.
Yesterday
High -- | Low -- °F
Precip. -- in
5:37 AM 8:30 PM
Waning Gibbous, 68% visible
Pressure 30.18 in
Visibility 9.0 miles
Clouds Few 2400 ft
Mostly Cloudy 3900 ft
Dew Point 55 °F
Humidity 85%
Rainfall 0.03 in
Snow Depth Not available.
UV 0 out of 12
Pollen .60 out of 12
Air Quality Not available.
Flu Activity Not available.
METAR KBKF 070458Z 12003KT 9SM FEW024 BKN039 15/13 A3033 RMK AO2A SLP220 T01540132

More Conditions Fewer Conditions

Pressure 30.18 in
Visibility 9.0 miles
Clouds Few 2400 ft
Mostly Cloudy 3900 ft
Dew Point 55 °F
Humidity 85%
Rainfall 0.03 in
Snow Depth Not available.
UV 0 out of 12
Pollen .60 out of 12
Air Quality Not available.
Flu Activity Not available.
METAR KBKF 070458Z 12003KT 9SM FEW024 BKN039 15/13 A3033 RMK AO2A SLP220 T01540132

More Conditions Fewer Conditions

10-Day Weather Forecast

×

Almanac

Astronomy

Jul. 06, 2015 Rise Set
Actual Time
Civil Twilight
Nautical Twilight
Astronomical Twilight
Moon
Length of Visible Light
Length of Day
Tomorrow will be .
, % of the Moon is Illuminated

Today's Extremes

State Highs State Lows

Community

WunderPhotos

Upload Photos

1,835,733 photos uploaded!

WunderBlogs® & News

Nearby

Air Quality

  Air Quality AQ Index Pollutant
Not available.

Snow Depth

Station Depth Elevation

Earthquake Activity

City Distance Mag. Time & Date
Minimum magnitude displayed is 2.5.

Coastal Water Temperatures

Place Temperature

Stations

Nearby Weather Stations

Station Location Temp. Windchill Dew Point Humidity Wind Precip. Elev Updated Type